createdAt,value
2016-08-26T00:01:00.131Z,99.99
2016-08-26T00:02:00.454Z,99.99
2016-08-26T00:02:59.701Z,99.99
2016-08-26T00:04:00.308Z,99.99
2016-08-26T00:04:59.741Z,99.99
2016-08-26T00:05:59.703Z,99.99
2016-08-26T00:06:59.699Z,99.99
2016-08-26T00:07:59.717Z,99.99
2016-08-26T00:08:59.702Z,99.99
2016-08-26T00:09:59.701Z,99.99
2016-08-26T00:10:59.757Z,99.99
2016-08-26T00:11:59.716Z,99.99
2016-08-26T00:13:00.537Z,99.99
2016-08-26T00:13:59.715Z,99.99
2016-08-26T00:14:59.755Z,99.99
2016-08-26T00:15:59.731Z,99.99
2016-08-26T00:16:59.727Z,99.99
2016-08-26T00:17:59.745Z,99.99
2016-08-26T00:18:59.750Z,99.99
2016-08-26T00:19:59.715Z,99.99
2016-08-26T00:20:59.725Z,99.99
2016-08-26T00:21:59.736Z,99.99
2016-08-26T00:23:00.785Z,99.99
2016-08-26T00:23:59.726Z,99.99
2016-08-26T00:24:59.720Z,99.99
2016-08-26T00:25:59.893Z,99.99
2016-08-26T00:26:59.715Z,99.99
2016-08-26T00:27:59.759Z,99.99
2016-08-26T00:28:59.715Z,99.99
2016-08-26T00:29:59.710Z,99.99
2016-08-26T00:30:59.737Z,99.99
2016-08-26T00:31:59.709Z,99.99
2016-08-26T00:32:59.717Z,99.99
2016-08-26T00:33:59.725Z,99.99
2016-08-26T00:34:59.716Z,99.99
2016-08-26T00:35:59.729Z,99.99
2016-08-26T00:36:59.727Z,99.99
2016-08-26T00:37:59.747Z,99.99
2016-08-26T00:38:59.789Z,99.99
2016-08-26T00:39:59.751Z,99.99
2016-08-26T00:40:59.718Z,99.99
2016-08-26T00:41:59.733Z,99.99
2016-08-26T00:42:59.743Z,99.99
2016-08-26T00:43:59.739Z,99.99
2016-08-26T00:44:59.740Z,99.99
2016-08-26T00:45:59.732Z,99.99
2016-08-26T00:46:59.737Z,99.99
2016-08-26T00:47:59.744Z,99.99
2016-08-26T00:48:59.734Z,99.99
2016-08-26T00:49:59.788Z,99.99
2016-08-26T00:50:59.747Z,99.99
2016-08-26T00:51:59.743Z,99.99
2016-08-26T00:52:59.734Z,99.99
2016-08-26T00:53:59.747Z,99.99
2016-08-26T00:54:59.763Z,99.99
2016-08-26T00:55:59.755Z,99.99
2016-08-26T00:56:59.752Z,99.99
2016-08-26T00:57:59.742Z,99.99
2016-08-26T00:58:59.759Z,99.99
2016-08-26T00:59:59.735Z,99.99
2016-08-26T01:00:59.777Z,99.99
2016-08-26T01:01:59.764Z,99.99
2016-08-26T01:02:59.747Z,99.99
2016-08-26T01:03:59.781Z,99.99
2016-08-26T01:04:59.756Z,99.99
2016-08-26T01:05:59.883Z,99.99
2016-08-26T01:06:59.743Z,99.99
2016-08-26T01:07:59.764Z,99.99
2016-08-26T01:08:59.783Z,99.99
2016-08-26T01:09:59.761Z,99.99
2016-08-26T01:10:59.743Z,99.99
2016-08-26T01:11:59.770Z,99.99
2016-08-26T01:12:59.773Z,99.99
2016-08-26T01:13:59.762Z,99.99
2016-08-26T01:14:59.796Z,99.99
2016-08-26T01:15:59.756Z,99.99
2016-08-26T01:16:59.884Z,99.99
2016-08-26T01:17:59.763Z,99.99
2016-08-26T01:18:59.825Z,99.99
2016-08-26T01:19:59.836Z,99.99
2016-08-26T01:20:59.797Z,99.99
2016-08-26T01:21:59.775Z,99.99
2016-08-26T01:22:59.767Z,99.99
2016-08-26T01:23:59.761Z,99.99
2016-08-26T01:24:59.764Z,99.99
2016-08-26T01:25:59.785Z,99.99
2016-08-26T01:26:59.792Z,99.99
2016-08-26T01:27:59.798Z,99.99
2016-08-26T01:28:59.792Z,99.99
2016-08-26T01:29:59.791Z,99.99
2016-08-26T01:30:59.925Z,99.99
2016-08-26T01:31:59.803Z,99.99
2016-08-26T01:32:59.778Z,99.99
2016-08-26T01:33:59.771Z,99.99
2016-08-26T01:34:59.781Z,99.99
2016-08-26T01:35:59.811Z,99.99
2016-08-26T01:36:59.792Z,99.99
2016-08-26T01:37:59.803Z,99.99
2016-08-26T01:38:59.793Z,99.99
2016-08-26T01:39:59.787Z,99.99
2016-08-26T01:40:59.783Z,99.99
2016-08-26T01:41:59.793Z,99.99
2016-08-26T01:42:59.794Z,99.99
2016-08-26T01:43:59.797Z,99.99
2016-08-26T01:44:59.807Z,99.99
2016-08-26T01:45:59.793Z,99.99
2016-08-26T01:47:00.787Z,99.99
2016-08-26T01:47:59.828Z,99.99
2016-08-26T01:48:59.779Z,99.99
2016-08-26T01:49:59.796Z,99.99
2016-08-26T01:50:59.806Z,99.99
2016-08-26T01:51:59.813Z,99.99
2016-08-26T01:52:59.820Z,99.99
2016-08-26T01:53:59.819Z,99.99
2016-08-26T01:54:59.792Z,99.99
2016-08-26T01:55:59.807Z,99.99
2016-08-26T01:56:59.801Z,99.99
2016-08-26T01:57:59.814Z,99.99
2016-08-26T01:58:59.797Z,99.99
2016-08-26T01:59:59.793Z,99.99
2016-08-26T02:00:59.800Z,99.99
2016-08-26T02:01:59.825Z,99.99
2016-08-26T02:02:59.806Z,99.99
2016-08-26T02:03:59.803Z,99.99
2016-08-26T02:04:59.795Z,99.99
2016-08-26T02:05:59.811Z,99.99
2016-08-26T02:06:59.809Z,99.99
2016-08-26T02:07:59.825Z,99.99
2016-08-26T02:08:59.833Z,99.99
2016-08-26T02:09:59.837Z,99.99
2016-08-26T02:10:59.817Z,99.99
2016-08-26T02:11:59.824Z,99.99
2016-08-26T02:12:59.830Z,99.99
2016-08-26T02:13:59.852Z,99.99
2016-08-26T02:14:59.807Z,99.99
2016-08-26T02:15:59.899Z,99.99
2016-08-26T02:16:59.826Z,99.99
2016-08-26T02:17:59.825Z,99.99
2016-08-26T02:18:59.814Z,99.99
2016-08-26T02:19:59.903Z,99.99
2016-08-26T02:20:59.827Z,99.99
2016-08-26T02:21:59.805Z,99.99
2016-08-26T02:22:59.828Z,99.99
2016-08-26T02:23:59.819Z,99.99
2016-08-26T02:24:59.824Z,99.99
2016-08-26T02:25:59.904Z,99.99
2016-08-26T02:26:59.867Z,99.99
2016-08-26T02:27:59.890Z,99.99
2016-08-26T02:28:59.877Z,99.99
2016-08-26T02:29:59.905Z,99.99
2016-08-26T02:30:59.901Z,99.99
2016-08-26T02:31:59.842Z,99.99
2016-08-26T02:32:59.839Z,99.99
2016-08-26T02:33:59.843Z,99.99
2016-08-26T02:34:59.879Z,99.99
2016-08-26T02:35:59.840Z,99.99
2016-08-26T02:36:59.849Z,99.99
2016-08-26T02:37:59.841Z,99.99
2016-08-26T02:38:59.964Z,99.99
2016-08-26T02:39:59.850Z,99.99
2016-08-26T02:40:59.899Z,99.99
2016-08-26T02:41:59.867Z,99.99
2016-08-26T02:42:59.890Z,99.99
2016-08-26T02:43:59.902Z,99.99
2016-08-26T02:44:59.866Z,99.99
2016-08-26T02:45:59.867Z,99.99
2016-08-26T02:46:59.866Z,99.99
2016-08-26T02:47:59.858Z,99.99
2016-08-26T02:48:59.864Z,99.99
2016-08-26T02:49:59.872Z,99.99
2016-08-26T02:50:59.863Z,99.99
2016-08-26T02:51:59.970Z,99.99
2016-08-26T02:52:59.933Z,99.99
2016-08-26T02:53:59.858Z,99.99
2016-08-26T02:54:59.858Z,99.99
2016-08-26T02:55:59.873Z,99.99
2016-08-26T02:56:59.872Z,99.99
2016-08-26T02:57:59.843Z,99.99
2016-08-26T02:59:00.218Z,99.99
2016-08-26T02:59:59.867Z,99.99
2016-08-26T03:00:59.871Z,99.99
2016-08-26T03:01:59.858Z,99.99
2016-08-26T03:02:59.877Z,99.99
2016-08-26T03:03:59.884Z,99.99
2016-08-26T03:04:59.861Z,99.99
2016-08-26T03:05:59.877Z,99.99
2016-08-26T03:06:59.870Z,99.99
2016-08-26T03:07:59.932Z,99.99
2016-08-26T03:08:59.877Z,99.99
2016-08-26T03:09:59.897Z,99.99
2016-08-26T03:10:59.955Z,99.99
2016-08-26T03:11:59.862Z,99.99
2016-08-26T03:12:59.890Z,99.99
2016-08-26T03:13:59.881Z,99.99
2016-08-26T03:14:59.911Z,99.99
2016-08-26T03:15:59.901Z,99.99
2016-08-26T03:17:00.576Z,99.99
2016-08-26T03:17:59.926Z,99.99
2016-08-26T03:18:59.904Z,99.99
2016-08-26T03:19:59.902Z,99.99
2016-08-26T03:20:59.887Z,99.99
2016-08-26T03:21:59.905Z,99.99
2016-08-26T03:23:00.099Z,99.99
2016-08-26T03:23:59.905Z,99.99
2016-08-26T03:24:59.891Z,99.99
2016-08-26T03:25:59.913Z,99.99
2016-08-26T03:26:59.917Z,99.99
2016-08-26T03:27:59.913Z,99.99
2016-08-26T03:28:59.879Z,99.99
2016-08-26T03:29:59.894Z,99.99
2016-08-26T03:30:59.891Z,99.99
2016-08-26T03:31:59.876Z,99.99
2016-08-26T03:32:59.890Z,99.99
2016-08-26T03:33:59.893Z,99.99
2016-08-26T03:34:59.969Z,99.99
2016-08-26T03:35:59.947Z,99.99
2016-08-26T03:36:59.896Z,99.99
2016-08-26T03:37:59.905Z,99.99
2016-08-26T03:38:59.910Z,99.99
2016-08-26T03:39:59.966Z,99.99
2016-08-26T03:40:59.910Z,99.99
2016-08-26T03:41:59.884Z,99.99
2016-08-26T03:42:59.904Z,99.99
2016-08-26T03:44:00.073Z,99.99
2016-08-26T03:44:59.889Z,99.99
2016-08-26T03:45:59.930Z,99.99
2016-08-26T03:46:59.936Z,99.99
2016-08-26T03:47:59.914Z,99.99
2016-08-26T03:48:59.890Z,99.99
2016-08-26T03:49:59.969Z,99.99
2016-08-26T03:50:59.921Z,99.99
2016-08-26T03:51:59.910Z,99.99
2016-08-26T03:52:59.906Z,99.99
2016-08-26T03:53:59.911Z,99.99
2016-08-26T03:54:59.921Z,99.99
2016-08-26T03:56:00.073Z,99.99
2016-08-26T03:56:59.926Z,99.99
2016-08-26T03:57:59.922Z,99.99
2016-08-26T03:58:59.974Z,99.99
2016-08-26T03:59:59.937Z,99.99
2016-08-26T04:00:59.927Z,99.99
2016-08-26T04:01:59.923Z,99.99
2016-08-26T04:02:59.912Z,99.99
2016-08-26T04:04:00.016Z,99.99
2016-08-26T04:04:59.942Z,99.99
2016-08-26T04:05:59.953Z,99.99
2016-08-26T04:06:59.926Z,99.99
2016-08-26T04:07:59.938Z,99.99
2016-08-26T04:08:59.927Z,99.99
2016-08-26T04:09:59.936Z,99.99
2016-08-26T04:10:59.942Z,99.99
2016-08-26T04:11:59.951Z,99.99
2016-08-26T04:12:59.943Z,99.99
2016-08-26T04:13:59.949Z,99.99
2016-08-26T04:14:59.990Z,99.99
2016-08-26T04:15:59.934Z,99.99
2016-08-26T04:16:59.928Z,99.99
2016-08-26T04:17:59.967Z,99.99
2016-08-26T04:18:59.956Z,99.99
2016-08-26T04:19:59.952Z,99.99
2016-08-26T04:20:59.938Z,99.99
2016-08-26T04:22:00.034Z,99.99
2016-08-26T04:23:00.069Z,99.99
2016-08-26T04:23:59.958Z,99.99
2016-08-26T04:24:59.938Z,99.99
2016-08-26T04:26:00.060Z,99.99
2016-08-26T04:26:59.937Z,99.99
2016-08-26T04:27:59.950Z,99.99
2016-08-26T04:28:59.940Z,99.99
2016-08-26T04:29:59.945Z,99.99
2016-08-26T04:30:59.960Z,99.99
2016-08-26T04:31:59.937Z,99.99
2016-08-26T04:32:59.944Z,99.99
2016-08-26T04:33:59.997Z,99.99
2016-08-26T04:34:59.956Z,99.99
2016-08-26T04:35:59.938Z,99.99
2016-08-26T04:36:59.943Z,99.99
2016-08-26T04:38:00.007Z,99.99
2016-08-26T04:38:59.986Z,99.99
2016-08-26T04:40:00.024Z,99.99
2016-08-26T04:40:59.955Z,99.99
2016-08-26T04:41:59.977Z,99.99
2016-08-26T04:42:59.969Z,99.99
2016-08-26T04:44:00.006Z,99.99
2016-08-26T04:44:59.961Z,99.99
2016-08-26T04:45:59.969Z,99.99
2016-08-26T04:47:00.589Z,99.99
2016-08-26T04:47:59.960Z,99.99
2016-08-26T04:48:59.975Z,99.99
2016-08-26T04:49:59.956Z,99.99
2016-08-26T04:50:59.965Z,99.99
2016-08-26T04:51:59.959Z,99.99
2016-08-26T04:53:00.223Z,99.99
2016-08-26T04:53:59.967Z,99.99
2016-08-26T04:54:59.987Z,99.99
2016-08-26T04:55:59.970Z,99.99
2016-08-26T04:56:59.963Z,99.99
2016-08-26T04:58:00.087Z,99.99
2016-08-26T04:58:59.960Z,99.99
2016-08-26T04:59:59.970Z,99.99
2016-08-26T05:00:59.971Z,99.99
2016-08-26T05:02:00.204Z,99.99
2016-08-26T05:02:59.986Z,99.99
2016-08-26T05:04:00.113Z,99.99
2016-08-26T05:04:59.985Z,99.99
2016-08-26T05:05:59.987Z,99.99
2016-08-26T05:07:00.089Z,99.99
2016-08-26T05:07:59.993Z,99.99
2016-08-26T05:09:00.001Z,99.99
2016-08-26T05:10:00.004Z,99.99
2016-08-26T05:11:00.287Z,99.99
2016-08-26T05:11:59.975Z,99.99
2016-08-26T05:12:59.986Z,99.99
2016-08-26T05:13:59.987Z,99.99
2016-08-26T05:14:59.996Z,99.99
2016-08-26T05:15:59.970Z,99.99
2016-08-26T05:16:59.992Z,99.99
2016-08-26T05:17:59.983Z,99.99
2016-08-26T05:19:00.037Z,99.99
2016-08-26T05:20:00.186Z,99.99
2016-08-26T05:20:59.992Z,99.99
2016-08-26T05:22:00.000Z,99.99
2016-08-26T05:22:59.998Z,99.99
2016-08-26T05:23:59.992Z,99.99
2016-08-26T05:24:59.988Z,99.99
2016-08-26T05:26:00.018Z,99.99
2016-08-26T05:27:00.001Z,99.99
2016-08-26T05:28:00.008Z,99.99
2016-08-26T05:29:00.009Z,99.99
2016-08-26T05:29:59.987Z,99.99
2016-08-26T05:30:59.999Z,99.99
2016-08-26T05:32:00.001Z,99.99
2016-08-26T05:32:59.999Z,99.99
2016-08-26T05:33:59.999Z,99.99
2016-08-26T05:35:00.006Z,99.99
2016-08-26T05:36:00.015Z,99.99
2016-08-26T05:37:00.021Z,99.99
2016-08-26T05:38:00.005Z,99.99
2016-08-26T05:39:00.005Z,99.99
2016-08-26T05:40:00.019Z,99.99
2016-08-26T05:41:00.002Z,99.99
2016-08-26T05:42:00.018Z,99.99
2016-08-26T05:43:00.037Z,99.99
2016-08-26T05:44:00.028Z,99.99
2016-08-26T05:45:00.020Z,99.99
2016-08-26T05:46:00.026Z,99.99
2016-08-26T05:47:00.042Z,99.99
2016-08-26T05:48:00.021Z,99.99
2016-08-26T05:48:59.999Z,99.99
2016-08-26T05:50:00.010Z,99.99
2016-08-26T05:51:00.044Z,99.99
2016-08-26T05:52:00.004Z,99.99
2016-08-26T05:53:00.023Z,99.99
2016-08-26T05:54:00.019Z,99.99
2016-08-26T05:55:00.035Z,99.99
2016-08-26T05:56:00.020Z,99.99
2016-08-26T05:57:00.053Z,99.99
2016-08-26T05:58:00.019Z,99.99
2016-08-26T05:59:00.052Z,99.99
2016-08-26T06:00:00.022Z,99.99
2016-08-26T06:01:00.037Z,99.99
2016-08-26T06:02:00.034Z,99.99
2016-08-26T06:03:00.023Z,99.99
2016-08-26T06:04:00.042Z,99.99
2016-08-26T06:05:00.035Z,99.99
2016-08-26T06:06:00.053Z,99.99
2016-08-26T06:07:00.032Z,99.99
2016-08-26T06:08:00.020Z,99.99
2016-08-26T06:09:00.093Z,99.99
2016-08-26T06:10:00.021Z,99.99
2016-08-26T06:11:00.035Z,99.99
2016-08-26T06:12:00.034Z,99.99
2016-08-26T06:13:00.039Z,99.99
2016-08-26T06:14:00.034Z,99.99
2016-08-26T06:15:00.032Z,99.99
2016-08-26T06:16:00.039Z,99.99
2016-08-26T06:17:00.042Z,99.99
2016-08-26T06:18:00.034Z,99.99
2016-08-26T06:19:00.056Z,99.99
2016-08-26T06:20:00.035Z,99.99
2016-08-26T06:21:00.065Z,99.99
2016-08-26T06:22:00.051Z,99.99
2016-08-26T06:23:00.033Z,99.99
2016-08-26T06:24:00.050Z,99.99
2016-08-26T06:25:00.038Z,99.99
2016-08-26T06:26:00.043Z,99.99
2016-08-26T06:27:00.032Z,99.99
2016-08-26T06:28:00.052Z,99.99
2016-08-26T06:29:00.052Z,99.98
2016-08-26T06:30:00.038Z,98.92
2016-08-26T06:31:00.059Z,98.82
2016-08-26T06:32:00.062Z,98.44
2016-08-26T06:33:00.057Z,97.67
2016-08-26T06:34:00.073Z,97.04
2016-08-26T06:35:00.066Z,97.52
2016-08-26T06:36:00.051Z,96.75
2016-08-26T06:37:00.055Z,96.94
2016-08-26T06:38:00.056Z,97.04
2016-08-26T06:39:00.068Z,95.69
2016-08-26T06:40:00.051Z,95.45
2016-08-26T06:41:00.055Z,94.38
2016-08-26T06:42:00.082Z,94
2016-08-26T06:43:00.052Z,93.32
2016-08-26T06:44:00.063Z,93.71
2016-08-26T06:45:00.084Z,93.13
2016-08-26T06:46:00.101Z,92.41
2016-08-26T06:47:00.084Z,91.63
2016-08-26T06:48:00.074Z,91.44
2016-08-26T06:49:00.064Z,91.25
2016-08-26T06:50:00.056Z,90.71
2016-08-26T06:51:00.080Z,90.91
2016-08-26T06:52:00.071Z,90.91
2016-08-26T06:53:00.082Z,90.33
2016-08-26T06:54:00.090Z,89.75
2016-08-26T06:55:00.087Z,89.79
2016-08-26T06:56:00.076Z,89.21
2016-08-26T06:57:00.082Z,87.85
2016-08-26T06:58:00.083Z,86.79
2016-08-26T06:59:00.075Z,86.21
2016-08-26T07:00:00.094Z,85.15
2016-08-26T07:01:00.114Z,85.58
2016-08-26T07:02:00.095Z,85.19
2016-08-26T07:03:00.097Z,85.05
2016-08-26T07:04:00.081Z,85.39
2016-08-26T07:05:00.082Z,84.9
2016-08-26T07:06:00.086Z,84.8
2016-08-26T07:07:00.129Z,85.29
2016-08-26T07:08:00.083Z,85.19
2016-08-26T07:09:00.096Z,85.58
2016-08-26T07:10:00.089Z,84.71
2016-08-26T07:11:00.098Z,84.84
2016-08-26T07:12:00.083Z,84.94
2016-08-26T07:13:00.113Z,84.66
2016-08-26T07:14:00.128Z,84.36
2016-08-26T07:15:00.112Z,83.69
2016-08-26T07:16:00.142Z,83.25
2016-08-26T07:17:00.116Z,83.4
2016-08-26T07:18:00.113Z,83.53
2016-08-26T07:19:00.096Z,83.63
2016-08-26T07:20:00.111Z,82.95
2016-08-26T07:21:00.096Z,82.57
2016-08-26T07:22:00.106Z,83.44
2016-08-26T07:23:00.108Z,83.05
2016-08-26T07:24:00.101Z,83.18
2016-08-26T07:25:00.139Z,82.9
2016-08-26T07:26:00.130Z,80.19
2016-08-26T07:27:00.114Z,79.9
2016-08-26T07:28:00.117Z,79.6
2016-08-26T07:29:00.179Z,79.55
2016-08-26T07:30:00.108Z,79.02
2016-08-26T07:31:00.116Z,78.29
2016-08-26T07:32:00.136Z,78.29
2016-08-26T07:33:00.128Z,78.38
2016-08-26T07:34:00.122Z,78.09
2016-08-26T07:35:00.115Z,78.38
2016-08-26T07:36:00.108Z,78.77
2016-08-26T07:37:00.128Z,78.91
2016-08-26T07:38:00.125Z,78.09
2016-08-26T07:39:00.128Z,77.84
2016-08-26T07:40:00.130Z,77.16
2016-08-26T07:41:00.122Z,77.36
2016-08-26T07:42:00.136Z,77.16
2016-08-26T07:43:00.138Z,76.48
2016-08-26T07:44:00.158Z,76.81
2016-08-26T07:45:00.128Z,76.14
2016-08-26T07:46:00.133Z,75.84
2016-08-26T07:47:00.142Z,74.97
2016-08-26T07:48:00.131Z,75.55
2016-08-26T07:49:00.126Z,75.55
2016-08-26T07:50:00.140Z,75.26
2016-08-26T07:51:00.140Z,75.68
2016-08-26T07:52:00.130Z,76.07
2016-08-26T07:53:00.141Z,75.88
2016-08-26T07:54:00.149Z,75.3
2016-08-26T07:55:00.144Z,74.91
2016-08-26T07:56:00.175Z,74.81
2016-08-26T07:57:00.149Z,74.62
2016-08-26T07:58:00.145Z,73.84
2016-08-26T07:59:00.143Z,73.88
2016-08-26T08:00:00.147Z,73.88
2016-08-26T08:01:00.145Z,73.97
2016-08-26T08:02:00.168Z,72.91
2016-08-26T08:03:00.192Z,73.68
2016-08-26T08:04:00.165Z,73.88
2016-08-26T08:05:00.134Z,73.62
2016-08-26T08:06:00.145Z,73.52
2016-08-26T08:07:00.148Z,72.85
2016-08-26T08:08:00.150Z,72.27
2016-08-26T08:09:00.344Z,72.75
2016-08-26T08:10:00.203Z,72.65
2016-08-26T08:11:00.169Z,72.07
2016-08-26T08:12:00.153Z,71.97
2016-08-26T08:13:00.159Z,71.84
2016-08-26T08:14:01.433Z,72.52
2016-08-26T08:15:00.223Z,71.45
2016-08-26T08:16:00.164Z,71.58
2016-08-26T08:17:00.210Z,72.45
2016-08-26T08:18:00.213Z,72.27
2016-08-26T08:19:00.181Z,71.97
2016-08-26T08:20:00.214Z,71.87
2016-08-26T08:21:00.163Z,72.36
2016-08-26T08:22:00.184Z,72.07
2016-08-26T08:23:00.190Z,72.36
2016-08-26T08:24:00.174Z,71.52
2016-08-26T08:25:00.764Z,71.62
2016-08-26T08:26:00.176Z,71.42
2016-08-26T08:27:00.186Z,70.51
2016-08-26T08:28:00.165Z,70.45
2016-08-26T08:29:00.209Z,70.65
2016-08-26T08:30:00.430Z,71.23
2016-08-26T08:31:00.207Z,71.13
2016-08-26T08:32:00.180Z,70.36
2016-08-26T08:33:00.188Z,70.39
2016-08-26T08:34:00.179Z,71.17
2016-08-26T08:35:00.168Z,70.49
2016-08-26T08:36:00.175Z,70.49
2016-08-26T08:37:00.208Z,70.58
2016-08-26T08:38:00.191Z,70.49
2016-08-26T08:39:00.302Z,70.29
2016-08-26T08:40:00.289Z,70.29
2016-08-26T08:41:00.191Z,69.9
2016-08-26T08:42:00.218Z,70.23
2016-08-26T08:43:00.180Z,69.94
2016-08-26T08:44:00.687Z,69.35
2016-08-26T08:45:00.196Z,68.87
2016-08-26T08:46:00.184Z,68.67
2016-08-26T08:47:00.190Z,69.16
2016-08-26T08:48:00.228Z,69.45
2016-08-26T08:49:00.746Z,68.57
2016-08-26T08:50:00.207Z,68.96
2016-08-26T08:51:00.220Z,68.77
2016-08-26T08:52:00.210Z,68.29
2016-08-26T08:53:00.212Z,68.02
2016-08-26T08:54:00.206Z,67.44
2016-08-26T08:55:00.684Z,68.22
2016-08-26T08:56:00.198Z,68.32
2016-08-26T08:57:00.204Z,67.44
2016-08-26T08:58:00.232Z,67.63
2016-08-26T08:59:00.478Z,68.84
2016-08-26T09:00:00.229Z,68.55
2016-08-26T09:01:00.212Z,67.57
2016-08-26T09:02:00.223Z,69.23
2016-08-26T09:03:00.871Z,69.23
2016-08-26T09:04:00.203Z,68.35
2016-08-26T09:05:00.217Z,68.35
2016-08-26T09:06:00.207Z,68.55
2016-08-26T09:07:00.222Z,68.16
2016-08-26T09:08:00.223Z,69.23
2016-08-26T09:09:00.206Z,68.87
2016-08-26T09:10:00.210Z,67.8
2016-08-26T09:11:00.219Z,67.7
2016-08-26T09:12:00.216Z,67.41
2016-08-26T09:13:00.236Z,67.6
2016-08-26T09:14:00.678Z,67.02
2016-08-26T09:15:00.239Z,67.22
2016-08-26T09:16:00.236Z,67.35
2016-08-26T09:17:00.231Z,68.09
2016-08-26T09:18:00.230Z,67.22
2016-08-26T09:19:00.269Z,66.76
2016-08-26T09:20:00.239Z,66.86
2016-08-26T09:21:00.907Z,66.66
2016-08-26T09:22:00.282Z,66.56
2016-08-26T09:23:00.241Z,67.15
2016-08-26T09:24:00.806Z,66.79
2016-08-26T09:25:00.254Z,66.99
2016-08-26T09:26:00.269Z,68.45
2016-08-26T09:27:00.253Z,66.79
2016-08-26T09:28:00.238Z,65.95
2016-08-26T09:29:00.284Z,65.66
2016-08-26T09:30:00.834Z,67.32
2016-08-26T09:31:00.258Z,65.75
2016-08-26T09:32:00.252Z,64.68
2016-08-26T09:33:00.272Z,63.73
2016-08-26T09:34:00.242Z,64.9
2016-08-26T09:35:00.256Z,64.51
2016-08-26T09:36:00.960Z,64.16
2016-08-26T09:37:00.540Z,63.28
2016-08-26T09:38:00.257Z,63.67
2016-08-26T09:39:00.274Z,63.57
2016-08-26T09:40:00.251Z,63.67
2016-08-26T09:41:00.245Z,63.77
2016-08-26T09:42:00.529Z,63.7
2016-08-26T09:43:00.260Z,63.09
2016-08-26T09:44:01.070Z,63.28
2016-08-26T09:45:00.260Z,62.7
2016-08-26T09:46:00.939Z,63.38
2016-08-26T09:47:00.293Z,63.09
2016-08-26T09:48:00.268Z,63.57
2016-08-26T09:49:00.287Z,63.21
2016-08-26T09:50:00.825Z,63.09
2016-08-26T09:51:01.140Z,63.77
2016-08-26T09:52:00.954Z,62.82
2016-08-26T09:53:00.438Z,62.89
2016-08-26T09:54:00.271Z,62.92
2016-08-26T09:55:01.156Z,62.92
2016-08-26T09:56:00.381Z,63.7
2016-08-26T09:57:00.271Z,64.87
2016-08-26T09:58:00.271Z,63.6
2016-08-26T09:59:00.276Z,64.84
2016-08-26T10:00:00.272Z,63.8
2016-08-26T10:01:00.293Z,63.6
2016-08-26T10:02:00.283Z,64.39
2016-08-26T10:03:00.288Z,63.48
2016-08-26T10:04:00.305Z,62.63
2016-08-26T10:05:00.290Z,62.33
2016-08-26T10:06:00.286Z,63.9
2016-08-26T10:07:00.313Z,63.28
2016-08-26T10:08:00.292Z,62.53
2016-08-26T10:09:00.316Z,61.91
2016-08-26T10:10:00.306Z,62.82
2016-08-26T10:11:00.458Z,63.12
2016-08-26T10:12:00.419Z,63.7
2016-08-26T10:13:00.314Z,63.18
2016-08-26T10:14:00.287Z,64.97
2016-08-26T10:15:00.306Z,63.57
2016-08-26T10:16:00.308Z,63.8
2016-08-26T10:17:00.314Z,62.79
2016-08-26T10:18:01.023Z,63.6
2016-08-26T10:19:01.038Z,63.8
2016-08-26T10:20:12.802Z,64
2016-08-26T10:27:48.746Z,64.36
2016-08-26T10:29:44.213Z,64.68
2016-08-26T10:30:44.192Z,63.7
2016-08-26T10:31:44.189Z,63.67
2016-08-26T10:32:44.194Z,63.41
2016-08-26T10:33:44.353Z,64.84
2016-08-26T10:34:44.344Z,66.21
2016-08-26T10:35:44.375Z,65.92
2016-08-26T10:36:44.281Z,66.31
2016-08-26T10:37:44.198Z,66.11
2016-08-26T10:38:44.203Z,65.82
2016-08-26T10:39:44.226Z,64.94
2016-08-26T10:40:44.209Z,63.48
2016-08-26T10:41:44.273Z,63.9
2016-08-26T10:42:44.204Z,65.14
2016-08-26T10:43:44.194Z,64.75
2016-08-26T10:44:44.240Z,64.94
2016-08-26T10:45:44.223Z,64.75
2016-08-26T10:46:44.213Z,64.45
2016-08-26T10:47:44.208Z,64.36
2016-08-26T10:48:44.253Z,65.17
2016-08-26T10:49:44.215Z,64
2016-08-26T10:50:44.224Z,65.33
2016-08-26T10:51:44.228Z,64.19
2016-08-26T10:52:44.214Z,64.87
2016-08-26T10:53:44.222Z,67.51
2016-08-26T10:54:44.255Z,65.46
2016-08-26T10:55:44.226Z,63.57
2016-08-26T10:56:44.253Z,64.39
2016-08-26T10:57:44.223Z,64.19
2016-08-26T10:58:46.295Z,66.14
2016-08-26T11:00:06.465Z,67.22
2016-08-26T11:01:07.007Z,67.02
2016-08-26T11:02:16.542Z,67.41
2016-08-26T11:02:53.943Z,66.93
2016-08-26T11:04:07.230Z,65.72
2016-08-26T11:05:19.398Z,65.95
2016-08-26T11:06:42.096Z,66.63
2016-08-26T11:08:05.321Z,66.24
2016-08-26T11:09:28.095Z,66.34
2016-08-26T11:10:50.414Z,66.73
2016-08-26T11:12:12.250Z,65.26
2016-08-26T11:13:35.049Z,66.05
2016-08-26T11:14:58.819Z,66.24
2016-08-26T11:16:20.565Z,65.66
2016-08-26T11:17:42.181Z,65.14
2016-08-26T11:19:03.276Z,66.14
2016-08-26T11:19:40.209Z,66.6
2016-08-26T11:21:01.314Z,65.07
2016-08-26T11:22:17.459Z,65.33
2016-08-26T11:23:32.271Z,64.75
2016-08-26T11:24:41.557Z,66.14
2016-08-26T11:25:26.339Z,65.56
2016-08-26T11:26:26.288Z,63.51
2016-08-26T11:27:26.275Z,63.31
2016-08-26T11:28:26.261Z,63.8
2016-08-26T11:29:26.261Z,64
2016-08-26T11:30:26.271Z,63.12
2016-08-26T11:31:26.274Z,63.51
2016-08-26T11:32:26.281Z,65.46
2016-08-26T11:33:26.288Z,65.36
2016-08-26T11:34:26.276Z,65.17
2016-08-26T11:35:26.288Z,64.09
2016-08-26T11:36:26.276Z,63.51
2016-08-26T11:37:26.284Z,64.29
2016-08-26T11:38:26.303Z,65.46
2016-08-26T11:39:26.307Z,65.36
2016-08-26T11:40:26.303Z,65.46
2016-08-26T11:41:26.288Z,64.58
2016-08-26T11:42:26.309Z,64.68
2016-08-26T11:43:26.301Z,65.46
2016-08-26T11:44:26.308Z,66.24
2016-08-26T11:45:26.303Z,65
2016-08-26T11:46:26.302Z,63.8
2016-08-26T11:47:26.318Z,65.56
2016-08-26T11:48:26.325Z,65.39
2016-08-26T11:49:26.308Z,65
2016-08-26T11:50:26.302Z,63.51
2016-08-26T11:51:26.309Z,63.15
2016-08-26T11:52:26.306Z,63.44
2016-08-26T11:53:26.325Z,63.34
2016-08-26T11:54:26.310Z,63.93
2016-08-26T11:55:26.310Z,63.54
2016-08-26T11:56:26.316Z,63.73
2016-08-26T11:57:26.308Z,63.73
2016-08-26T11:58:26.318Z,63.44
2016-08-26T11:59:26.318Z,63.73
2016-08-26T12:00:26.307Z,63.54
2016-08-26T12:01:26.304Z,63.15
2016-08-26T12:02:26.361Z,63.93
2016-08-26T12:03:26.326Z,64.42
2016-08-26T12:04:26.334Z,62.16
2016-08-26T12:05:26.335Z,62.56
2016-08-26T12:06:26.328Z,62.85
2016-08-26T12:07:26.317Z,63.34
2016-08-26T12:08:26.339Z,63.54
2016-08-26T12:09:26.344Z,63.83
2016-08-26T12:10:26.323Z,62.36
2016-08-26T12:11:26.306Z,62.95
2016-08-26T12:12:26.330Z,63.54
2016-08-26T12:13:26.320Z,64.22
2016-08-26T12:14:26.334Z,64.22
2016-08-26T12:15:26.333Z,64.94
2016-08-26T12:16:26.336Z,65.33
2016-08-26T12:17:26.349Z,64.25
2016-08-26T12:18:26.340Z,64.15
2016-08-26T12:19:26.345Z,65.23
2016-08-26T12:20:26.350Z,66.11
2016-08-26T12:21:26.334Z,64.12
2016-08-26T12:22:26.343Z,64.45
2016-08-26T12:23:26.334Z,65.03
2016-08-26T12:24:26.353Z,65.91
2016-08-26T12:25:26.365Z,65.52
2016-08-26T12:26:26.355Z,65.13
2016-08-26T12:27:26.349Z,65.33
2016-08-26T12:28:26.335Z,65.42
2016-08-26T12:29:26.348Z,64.94
2016-08-26T12:30:26.335Z,65.13
2016-08-26T12:31:26.344Z,66.05
2016-08-26T12:32:26.334Z,66.4
2016-08-26T12:33:26.351Z,65.85
2016-08-26T12:34:26.427Z,64.94
2016-08-26T12:35:26.366Z,64.48
2016-08-26T12:36:26.344Z,63.6
2016-08-26T12:37:26.351Z,64.15
2016-08-26T12:38:26.365Z,64.54
2016-08-26T12:39:26.340Z,63.4
2016-08-26T12:40:26.352Z,64.09
2016-08-26T12:41:26.350Z,65.03
2016-08-26T12:42:26.397Z,66.34
2016-08-26T12:43:26.369Z,65.52
2016-08-26T12:44:26.364Z,66.11
2016-08-26T12:45:26.366Z,64.97
2016-08-26T12:46:26.390Z,64.28
2016-08-26T12:47:26.373Z,65.95
2016-08-26T12:48:26.421Z,65.95
2016-08-26T12:49:26.400Z,65.36
2016-08-26T12:50:26.381Z,66.05
2016-08-26T12:51:26.367Z,65.26
2016-08-26T12:52:26.390Z,64.48
2016-08-26T12:53:26.383Z,63.7
2016-08-26T12:54:27.014Z,64.38
2016-08-26T12:55:27.042Z,65.75
2016-08-26T12:56:26.383Z,65.16
2016-08-26T12:57:26.370Z,64.18
2016-08-26T12:58:26.382Z,63.7
2016-08-26T12:59:26.398Z,64.38
2016-08-26T13:00:26.385Z,63.99
2016-08-26T13:01:27.193Z,63.89
2016-08-26T13:02:26.452Z,64.38
2016-08-26T13:03:26.433Z,64.38
2016-08-26T13:04:26.447Z,64.67
2016-08-26T13:05:26.405Z,65.06
2016-08-26T13:06:26.397Z,64.38
2016-08-26T13:07:26.990Z,64.38